Time;durP1;ratioP1;P1;durP2;ratioP2;P2;SDS_P1;SDS_P2;PMS_P1;PMS_P2;Temp;Humidity;BMP_temperature;BMP_pressure;BME280_temperature;BME280_humidity;BME280_pressure;Samples;Min_cycle;Max_cycle;Signal;HPM_P1;HPM_P2
2021/07/18 00:01:10;;;;;;;7.20;3.27;;;16.90;99.90;;;;;;5013280;28;20268;-90
2021/07/18 00:03:37;;;;;;;4.60;2.60;;;17.00;99.90;;;;;;5014370;28;20202;-87
2021/07/18 00:06:03;;;;;;;3.77;3.13;;;17.00;99.90;;;;;;5019947;28;20241;-88
2021/07/18 00:08:29;;;;;;;8.90;3.60;;;17.00;99.90;;;;;;5003059;28;20272;-89
2021/07/18 00:10:55;;;;;;;4.77;2.13;;;17.00;99.90;;;;;;5015858;28;20182;-88
2021/07/18 00:13:21;;;;;;;3.27;2.23;;;16.90;99.90;;;;;;5007300;28;20215;-88
2021/07/18 00:15:49;;;;;;;7.43;2.77;;;16.90;99.90;;;;;;5013808;28;20214;-89
2021/07/18 00:18:15;;;;;;;9.20;2.97;;;17.00;99.90;;;;;;5013118;28;20720;-87
2021/07/18 00:20:41;;;;;;;8.00;2.90;;;16.90;99.90;;;;;;4997003;28;20678;-87
2021/07/18 00:23:07;;;;;;;5.13;3.60;;;16.90;99.90;;;;;;5022582;28;20657;-88
2021/07/18 00:25:33;;;;;;;5.40;3.00;;;16.90;99.90;;;;;;5004067;28;20214;-89
2021/07/18 00:27:59;;;;;;;5.10;2.93;;;16.90;99.90;;;;;;5013427;28;20217;-87
2021/07/18 00:30:26;;;;;;;8.73;2.70;;;16.90;99.90;;;;;;5012725;28;20214;-88
2021/07/18 00:32:51;;;;;;;3.70;2.23;;;16.90;99.90;;;;;;5013618;28;20680;-89
2021/07/18 00:35:17;;;;;;;8.60;2.77;;;16.90;99.90;;;;;;4996201;28;20226;-88
2021/07/18 00:37:43;;;;;;;4.50;2.87;;;16.90;99.90;;;;;;5013328;28;20280;-88
2021/07/18 00:40:09;;;;;;;7.27;2.90;;;16.90;99.90;;;;;;5011961;28;20206;-87
2021/07/18 00:42:36;;;;;;;7.73;2.63;;;16.90;99.90;;;;;;5003863;28;20292;-88
2021/07/18 00:45:03;;;;;;;8.80;2.57;;;16.90;99.90;;;;;;5036801;28;20301;-87
2021/07/18 00:47:30;;;;;;;6.37;2.40;;;16.90;99.90;;;;;;5001290;28;20682;-87
2021/07/18 00:50:05;;;;;;;4.20;2.97;;;16.90;99.90;;;;;;5020791;28;20273;-90
2021/07/18 00:52:30;;;;;;;4.67;2.73;;;16.90;99.90;;;;;;5021760;28;20230;-86
2021/07/18 00:54:56;;;;;;;4.80;2.37;;;16.80;99.90;;;;;;5012008;28;20296;-89
2021/07/18 00:57:22;;;;;;;4.33;3.03;;;16.80;99.90;;;;;;5003233;28;20209;-86
2021/07/18 00:59:48;;;;;;;4.17;2.43;;;16.80;99.90;;;;;;5012639;28;20218;-89
2021/07/18 01:02:15;;;;;;;2.83;2.30;;;16.80;99.90;;;;;;4996383;28;20669;-88
2021/07/18 01:04:41;;;;;;;5.17;2.70;;;16.80;99.90;;;;;;5019422;28;20943;-87
2021/07/18 01:07:07;;;;;;;8.33;2.87;;;16.80;99.90;;;;;;5004714;28;20304;-86
2021/07/18 01:09:34;;;;;;;6.40;2.80;;;16.80;99.90;;;;;;4995190;28;20570;-88
2021/07/18 01:12:00;;;;;;;6.47;2.30;;;16.80;99.90;;;;;;5003954;28;20277;-86
2021/07/18 01:14:26;;;;;;;4.40;2.57;;;16.80;99.90;;;;;;5004547;28;20603;-86
2021/07/18 01:16:52;;;;;;;5.33;2.50;;;16.80;99.90;;;;;;5021292;28;20281;-87
2021/07/18 01:19:21;;;;;;;4.80;2.67;;;16.70;99.90;;;;;;4991558;28;20307;-87
2021/07/18 01:22:01;;;;;;;3.80;2.50;;;16.80;99.90;;;;;;5002391;28;20214;-87
2021/07/18 01:24:28;;;;;;;8.27;2.40;;;16.80;99.90;;;;;;5006950;28;20717;-88
2021/07/18 01:26:55;;;;;;;4.33;2.30;;;16.80;99.90;;;;;;5010570;28;20263;-86
2021/07/18 01:29:22;;;;;;;4.53;2.87;;;16.80;99.90;;;;;;5021591;28;20182;-89
2021/07/18 01:31:48;;;;;;;3.03;2.00;;;16.90;99.90;;;;;;5018428;28;20210;-87
2021/07/18 01:34:14;;;;;;;4.50;2.40;;;16.90;99.90;;;;;;5019096;28;20253;-87
2021/07/18 01:36:40;;;;;;;3.60;2.43;;;16.90;99.90;;;;;;4994443;28;20254;-87
2021/07/18 01:39:11;;;;;;;3.83;2.47;;;16.80;99.90;;;;;;4986966;28;20211;-87
2021/07/18 01:41:37;;;;;;;2.60;1.83;;;16.80;99.90;;;;;;5017307;28;20546;-87
2021/07/18 01:44:05;;;;;;;5.60;2.43;;;16.80;99.90;;;;;;4992695;28;20187;-86
2021/07/18 01:46:32;;;;;;;3.37;2.70;;;16.80;99.90;;;;;;5016154;28;20214;-86
2021/07/18 01:48:58;;;;;;;2.93;2.03;;;16.80;99.90;;;;;;5007597;28;20679;-87
2021/07/18 01:51:29;;;;;;;4.47;2.20;;;16.80;99.90;;;;;;5016546;28;20226;-89
2021/07/18 01:54:00;;;;;;;3.80;2.47;;;16.80;99.90;;;;;;5007481;28;20225;-87
2021/07/18 01:56:27;;;;;;;3.00;1.87;;;16.70;99.90;;;;;;5008267;28;20226;-86
2021/07/18 01:58:53;;;;;;;2.70;1.97;;;16.70;99.90;;;;;;5007149;28;20218;-87
2021/07/18 02:01:26;;;;;;;2.27;2.07;;;16.60;99.90;;;;;;5013782;28;21006;-87
2021/07/18 02:03:53;;;;;;;3.87;2.10;;;16.70;99.90;;;;;;5017412;28;20313;-88
2021/07/18 02:06:22;;;;;;;5.10;2.43;;;16.70;99.90;;;;;;5000992;28;20303;-89
2021/07/18 02:08:52;;;;;;;3.97;1.90;;;16.70;99.90;;;;;;5014424;28;20670;-87
2021/07/18 02:11:18;;;;;;;6.30;2.17;;;16.80;99.90;;;;;;5017100;28;20179;-87
2021/07/18 02:13:53;;;;;;;3.33;1.80;;;16.80;99.90;;;;;;5007223;28;20563;-87
2021/07/18 02:16:19;;;;;;;4.23;2.40;;;16.80;99.90;;;;;;5014787;28;20206;-87
2021/07/18 02:18:46;;;;;;;6.67;2.50;;;16.70;99.90;;;;;;4991168;28;20211;-87
2021/07/18 02:21:13;;;;;;;11.47;2.87;;;16.70;99.90;;;;;;4999137;28;20306;-91
2021/07/18 02:23:38;;;;;;;3.83;2.33;;;16.80;99.90;;;;;;5000325;28;20278;-90
2021/07/18 02:26:04;;;;;;;5.77;2.63;;;16.80;99.90;;;;;;5006966;28;20282;-88
2021/07/18 02:28:30;;;;;;;4.73;3.10;;;16.80;99.90;;;;;;5006793;28;20707;-88
2021/07/18 02:30:56;;;;;;;9.77;3.33;;;16.70;99.90;;;;;;5017053;28;20299;-89
2021/07/18 02:33:22;;;;;;;4.83;2.73;;;16.80;99.90;;;;;;5014865;28;20293;-89
2021/07/18 02:35:49;;;;;;;3.57;1.90;;;16.70;99.90;;;;;;5007047;28;20274;-88
2021/07/18 02:38:15;;;;;;;6.50;2.73;;;16.80;99.90;;;;;;5006965;28;20662;-90
2021/07/18 02:40:40;;;;;;;4.33;2.33;;;16.80;99.90;;;;;;4992064;28;20245;-86
2021/07/18 02:43:06;;;;;;;4.37;2.47;;;16.80;99.90;;;;;;4991403;28;20234;-87
2021/07/18 02:45:32;;;;;;;5.33;3.03;;;16.80;99.90;;;;;;5007814;28;20202;-87
2021/07/18 02:47:58;;;;;;;4.40;2.93;;;16.70;99.90;;;;;;4990380;28;20219;-87
2021/07/18 02:50:29;;;;;;;5.53;2.37;;;16.70;99.90;;;;;;4998116;28;20191;-87
2021/07/18 02:52:55;;;;;;;4.03;2.77;;;16.70;99.90;;;;;;5013798;28;20222;-90
2021/07/18 02:55:21;;;;;;;5.03;2.60;;;16.80;99.90;;;;;;5002867;28;20211;-87
2021/07/18 02:57:48;;;;;;;4.07;2.80;;;16.80;99.90;;;;;;5015370;28;20585;-87
2021/07/18 03:00:18;;;;;;;5.20;2.77;;;16.80;99.90;;;;;;5014836;28;20241;-90
2021/07/18 03:02:45;;;;;;;14.27;3.37;;;16.80;99.90;;;;;;5016664;28;20201;-88
2021/07/18 03:05:12;;;;;;;4.17;2.33;;;16.80;99.90;;;;;;5008060;28;20190;-87
2021/07/18 03:07:39;;;;;;;8.87;2.47;;;16.80;99.90;;;;;;4990413;28;20589;-88
2021/07/18 03:10:06;;;;;;;3.43;2.20;;;16.80;99.90;;;;;;5013535;28;20306;-87
2021/07/18 03:12:32;;;;;;;3.83;3.07;;;16.80;99.90;;;;;;4998500;28;20650;-88
2021/07/18 03:15:03;;;;;;;4.77;2.57;;;16.80;99.90;;;;;;5008340;28;20249;-87
2021/07/18 03:17:29;;;;;;;4.50;3.60;;;16.80;99.90;;;;;;5015799;28;20209;-88
2021/07/18 03:19:54;;;;;;;10.17;2.77;;;16.80;99.90;;;;;;4993827;28;20187;-89
2021/07/18 03:22:21;;;;;;;7.80;2.50;;;16.80;99.90;;;;;;5009649;28;20575;-87
2021/07/18 03:24:48;;;;;;;5.57;2.57;;;16.80;99.90;;;;;;5005003;28;20215;-88
2021/07/18 03:27:13;;;;;;;4.37;2.27;;;16.80;99.90;;;;;;5010687;28;20219;-87
2021/07/18 03:29:39;;;;;;;8.00;2.77;;;16.80;99.90;;;;;;5003106;28;20673;-88
2021/07/18 03:32:06;;;;;;;6.30;3.00;;;16.80;99.90;;;;;;5010199;28;20655;-88
2021/07/18 03:34:32;;;;;;;3.77;2.90;;;16.80;99.90;;;;;;5020094;28;20268;-88
2021/07/18 03:36:57;;;;;;;5.53;2.43;;;16.80;99.90;;;;;;5010791;28;20230;-88
2021/07/18 03:39:23;;;;;;;4.20;2.70;;;16.80;99.90;;;;;;4995015;28;20269;-88
2021/07/18 03:41:49;;;;;;;3.93;2.43;;;16.80;99.90;;;;;;4994519;28;20684;-88
2021/07/18 03:44:15;;;;;;;5.47;2.50;;;16.80;99.90;;;;;;5010870;28;20221;-91
2021/07/18 03:46:41;;;;;;;4.00;2.40;;;16.80;99.90;;;;;;4993880;28;20227;-90
2021/07/18 03:49:07;;;;;;;7.83;2.87;;;16.80;99.90;;;;;;4994875;28;20202;-87
2021/07/18 03:51:33;;;;;;;3.77;2.10;;;16.90;99.90;;;;;;5017035;28;20692;-88
2021/07/18 03:53:58;;;;;;;4.80;2.30;;;16.90;99.90;;;;;;5019915;28;20214;-87
2021/07/18 03:56:24;;;;;;;7.57;2.83;;;16.90;99.90;;;;;;4994168;28;20199;-87
2021/07/18 03:58:51;;;;;;;5.13;3.47;;;16.90;99.90;;;;;;4993518;28;20255;-89
2021/07/18 04:01:16;;;;;;;3.30;2.67;;;16.90;99.90;;;;;;5011242;28;20255;-88
2021/07/18 04:03:46;;;;;;;5.17;2.83;;;16.90;99.90;;;;;;5009158;28;20211;-88
2021/07/18 04:06:13;;;;;;;5.80;3.13;;;16.90;99.90;;;;;;5010826;28;20589;-88
2021/07/18 04:08:38;;;;;;;5.37;2.97;;;16.90;99.90;;;;;;5010339;28;20963;-86
2021/07/18 04:11:04;;;;;;;6.13;3.43;;;16.90;99.90;;;;;;5001043;28;20280;-86
2021/07/18 04:13:30;;;;;;;7.47;2.90;;;17.00;99.90;;;;;;4993776;28;20777;-87
2021/07/18 04:15:55;;;;;;;6.73;3.37;;;17.10;99.90;;;;;;4994488;28;20238;-88
2021/07/18 04:18:21;;;;;;;7.13;4.30;;;17.10;99.90;;;;;;4992503;28;20297;-87
2021/07/18 04:20:47;;;;;;;10.17;3.77;;;17.20;99.90;;;;;;5003443;28;21080;-87
2021/07/18 04:23:14;;;;;;;4.83;3.47;;;17.30;99.90;;;;;;5009640;28;20278;-86
2021/07/18 04:25:40;;;;;;;9.90;4.40;;;17.30;99.90;;;;;;5019042;28;20706;-87
2021/07/18 04:28:05;;;;;;;6.87;4.53;;;17.30;99.90;;;;;;5019338;28;20227;-86
2021/07/18 04:30:31;;;;;;;9.83;4.17;;;17.40;99.90;;;;;;5008105;28;20221;-89
2021/07/18 04:32:57;;;;;;;6.13;4.17;;;17.40;99.90;;;;;;4993351;28;20214;-87
2021/07/18 04:35:23;;;;;;;5.40;3.87;;;17.50;99.90;;;;;;4996142;28;20194;-86
2021/07/18 04:37:48;;;;;;;9.00;4.57;;;17.60;99.90;;;;;;4995496;28;20229;-86
2021/07/18 04:40:14;;;;;;;6.43;4.73;;;17.60;99.90;;;;;;5012697;28;20210;-87
2021/07/18 04:42:40;;;;;;;6.40;3.90;;;17.70;99.90;;;;;;4996258;28;20202;-86
2021/07/18 04:45:07;;;;;;;8.70;4.77;;;17.70;99.90;;;;;;4995705;28;20241;-87
2021/07/18 04:47:41;;;;;;;7.33;5.10;;;17.80;99.90;;;;;;5021423;28;20206;-86
2021/07/18 04:50:07;;;;;;;7.40;4.33;;;17.90;99.90;;;;;;5038440;28;20175;-86
2021/07/18 04:52:33;;;;;;;7.27;4.83;;;18.00;99.90;;;;;;5021357;28;20215;-86
2021/07/18 04:54:59;;;;;;;8.87;4.93;;;18.00;99.90;;;;;;5002169;28;20285;-86
2021/07/18 04:57:24;;;;;;;6.67;3.80;;;18.10;99.90;;;;;;5003708;28;20220;-89
2021/07/18 04:59:50;;;;;;;8.10;3.90;;;18.30;99.90;;;;;;4996174;28;20687;-87
2021/07/18 05:02:16;;;;;;;6.83;4.23;;;18.30;99.90;;;;;;4995657;28;20179;-87
2021/07/18 05:04:42;;;;;;;7.27;4.40;;;18.40;99.90;;;;;;4994938;28;20218;-87
2021/07/18 05:07:08;;;;;;;4.80;3.87;;;18.50;99.90;;;;;;5011366;28;20649;-87
2021/07/18 05:09:33;;;;;;;8.87;4.83;;;18.60;99.90;;;;;;5012189;28;20236;-87
2021/07/18 05:11:59;;;;;;;5.53;4.10;;;18.80;99.90;;;;;;5011977;28;20244;-86
2021/07/18 05:14:25;;;;;;;6.50;4.10;;;18.90;99.90;;;;;;5011813;28;20187;-88
2021/07/18 05:16:50;;;;;;;7.10;4.37;;;19.00;99.90;;;;;;5004176;28;20305;-87
2021/07/18 05:19:16;;;;;;;4.43;3.17;;;19.10;99.90;;;;;;4995581;28;20769;-86
2021/07/18 05:21:42;;;;;;;8.90;4.53;;;19.20;99.90;;;;;;5011490;28;20256;-88
2021/07/18 05:24:08;;;;;;;5.67;4.23;;;19.40;99.90;;;;;;4995017;28;20741;-88
2021/07/18 05:26:33;;;;;;;5.40;3.30;;;19.60;99.90;;;;;;4994937;28;20210;-87
2021/07/18 05:28:59;;;;;;;8.60;3.90;;;20.50;99.90;;;;;;5011127;28;20174;-87
2021/07/18 05:31:25;;;;;;;7.30;4.33;;;22.10;99.90;;;;;;5011213;28;20304;-86
2021/07/18 05:33:50;;;;;;;4.20;3.03;;;23.50;99.90;;;;;;4995544;28;20222;-87
2021/07/18 05:36:16;;;;;;;9.63;3.10;;;24.40;99.90;;;;;;4994149;28;20721;-87
2021/07/18 05:38:42;;;;;;;6.87;3.77;;;24.80;99.90;;;;;;4994691;28;20202;-87
2021/07/18 05:41:07;;;;;;;6.23;3.43;;;24.80;99.90;;;;;;5019227;28;20205;-87
2021/07/18 05:43:33;;;;;;;4.13;3.50;;;24.80;99.90;;;;;;4994080;28;20857;-86
2021/07/18 05:45:59;;;;;;;4.03;3.13;;;25.60;99.90;;;;;;4995740;28;20222;-86
2021/07/18 05:48:25;;;;;;;3.75;2.65;;;26.40;99.90;;;;;;5011035;28;20308;-87
2021/07/18 05:50:54;;;;;;;7.28;2.90;;;27.20;99.90;;;;;;4985521;28;20226;-90
2021/07/18 05:53:19;;;;;;;5.57;2.38;;;27.30;99.90;;;;;;5020338;28;20216;-86
2021/07/18 05:55:45;;;;;;;3.35;2.40;;;28.20;99.90;;;;;;5011582;28;20209;-87
2021/07/18 05:58:11;;;;;;;5.53;2.83;;;28.20;99.90;;;;;;5017134;28;20797;-88
2021/07/18 06:00:40;;;;;;;3.42;2.80;;;28.20;99.90;;;;;;4993248;28;20245;-86
2021/07/18 06:03:06;;;;;;;3.53;2.13;;;27.90;99.90;;;;;;4994984;28;20748;-87
2021/07/18 06:05:32;;;;;;;5.43;2.53;;;28.50;99.90;;;;;;5010072;28;20190;-87
2021/07/18 06:07:58;;;;;;;3.05;2.55;;;27.80;99.90;;;;;;4995142;28;20202;-87
2021/07/18 06:10:24;;;;;;;2.70;2.40;;;28.50;99.90;;;;;;4994284;28;20221;-86
2021/07/18 06:12:50;;;;;;;3.33;2.00;;;29.70;99.90;;;;;;4985662;28;20242;-89
2021/07/18 06:15:15;;;;;;;4.15;2.50;;;28.40;99.90;;;;;;5004168;28;20214;-88
2021/07/18 06:17:41;;;;;;;2.33;2.13;;;29.10;99.90;;;;;;5010670;28;20186;-89
2021/07/18 06:20:09;;;;;;;3.70;2.15;;;29.90;99.90;;;;;;4994456;28;20689;-87
2021/07/18 06:22:35;;;;;;;3.03;2.17;;;29.80;99.90;;;;;;5010150;28;20229;-86
2021/07/18 06:25:05;;;;;;;3.45;2.20;;;30.20;99.90;;;;;;5020155;28;20223;-87
2021/07/18 06:27:31;;;;;;;2.55;2.10;;;29.30;99.90;;;;;;5016349;28;20614;-87
2021/07/18 06:29:57;;;;;;;4.45;2.20;;;28.20;99.90;;;;;;4993842;28;20211;-87
2021/07/18 06:32:25;;;;;;;4.55;2.30;;;27.80;99.90;;;;;;5001481;28;20213;-86
2021/07/18 06:34:51;;;;;;;3.63;2.45;;;27.60;99.90;;;;;;5010207;28;20214;-86
2021/07/18 06:37:17;;;;;;;4.10;2.35;;;28.90;99.90;;;;;;4994268;28;20272;-86
2021/07/18 06:39:42;;;;;;;4.03;2.83;;;29.50;99.90;;;;;;5019275;28;20221;-85
2021/07/18 06:42:08;;;;;;;2.95;1.92;;;30.10;99.90;;;;;;5010000;28;20210;-86
2021/07/18 06:44:34;;;;;;;4.43;2.35;;;28.80;99.90;;;;;;5018182;28;20191;-87
2021/07/18 06:47:00;;;;;;;1.80;1.70;;;28.90;99.90;;;;;;4995249;28;20256;-86
2021/07/18 06:49:25;;;;;;;2.20;1.75;;;28.30;99.90;;;;;;5000229;28;20301;-86
2021/07/18 06:51:51;;;;;;;6.80;2.05;;;28.70;99.90;;;;;;4994117;28;20231;-87
2021/07/18 06:54:17;;;;;;;3.50;2.00;;;28.80;99.90;;;;;;5010760;28;20206;-86
2021/07/18 06:56:43;;;;;;;2.58;2.28;;;28.70;99.90;;;;;;5002233;28;20195;-87
2021/07/18 06:59:09;;;;;;;3.30;2.00;;;29.90;99.90;;;;;;5018895;28;20197;-88
2021/07/18 07:01:35;;;;;;;4.53;1.70;;;31.00;99.90;;;;;;5010036;28;20228;-88
2021/07/18 07:04:00;;;;;;;4.70;2.10;;;31.90;99.90;;;;;;5002172;28;20222;-88
2021/07/18 07:06:26;;;;;;;3.70;2.08;;;32.00;99.90;;;;;;5017010;28;20211;-85
2021/07/18 07:08:54;;;;;;;6.13;2.00;;;31.90;99.90;;;;;;5010019;28;20702;-84
2021/07/18 07:11:21;;;;;;;3.70;2.00;;;32.30;99.90;;;;;;4994313;28;20548;-85
2021/07/18 07:13:47;;;;;;;4.75;1.95;;;32.10;99.90;;;;;;5011433;28;20378;-86
2021/07/18 07:16:13;;;;;;;2.72;1.88;;;31.90;99.90;;;;;;5015463;28;20230;-84
2021/07/18 07:18:39;;;;;;;2.92;2.28;;;32.10;99.90;;;;;;5008119;28;20245;-86
2021/07/18 07:21:05;;;;;;;5.35;1.90;;;32.10;99.90;;;;;;5010842;28;20225;-86
2021/07/18 07:23:30;;;;;;;3.78;1.58;;;32.40;99.90;;;;;;4994927;28;20194;-86
2021/07/18 07:25:56;;;;;;;5.10;1.73;;;32.20;99.90;;;;;;5010839;28;20716;-86
2021/07/18 07:28:22;;;;;;;4.28;1.48;;;32.70;99.90;;;;;;5001739;28;20230;-89
2021/07/18 07:30:49;;;;;;;4.60;1.73;;;32.30;99.90;;;;;;5017316;28;20321;-86
2021/07/18 07:33:15;;;;;;;4.15;1.45;;;31.30;99.90;;;;;;5002505;28;20225;-86
2021/07/18 07:35:41;;;;;;;2.38;1.63;;;30.80;99.90;;;;;;4999859;28;20190;-87
2021/07/18 07:38:08;;;;;;;3.33;1.60;;;29.40;99.90;;;;;;5020163;28;20561;-86
2021/07/18 07:40:33;;;;;;;2.72;1.52;;;28.50;99.90;;;;;;5009157;28;20218;-89
2021/07/18 07:42:59;;;;;;;5.97;1.48;;;29.50;99.90;;;;;;4993588;28;20215;-86
2021/07/18 07:45:25;;;;;;;2.20;1.98;;;29.70;99.90;;;;;;4993721;28;20211;-89
2021/07/18 07:47:51;;;;;;;1.98;1.58;;;28.50;99.90;;;;;;4992850;28;20222;-86
2021/07/18 07:50:16;;;;;;;4.13;1.63;;;29.60;99.90;;;;;;4993628;28;20202;-88
2021/07/18 07:52:42;;;;;;;3.08;1.48;;;30.40;99.90;;;;;;4993605;28;20221;-88
2021/07/18 07:55:10;;;;;;;2.03;1.60;;;30.90;99.90;;;;;;5019814;28;20222;-87
2021/07/18 07:57:35;;;;;;;2.85;1.70;;;31.00;99.90;;;;;;5015440;28;21036;-87
2021/07/18 08:00:11;;;;;;;2.17;1.88;;;31.10;99.90;;;;;;5035778;28;20293;-86
2021/07/18 08:02:37;;;;;;;2.65;1.48;;;30.70;99.90;;;;;;5018544;28;20182;-87
2021/07/18 08:05:05;;;;;;;4.60;2.05;;;30.90;99.90;;;;;;5020503;28;20182;-87
2021/07/18 08:07:31;;;;;;;2.70;1.77;;;30.50;99.90;;;;;;5020668;28;20222;-91
2021/07/18 08:09:56;;;;;;;2.75;1.95;;;29.50;99.90;;;;;;5014037;28;20209;-88
2021/07/18 08:12:22;;;;;;;2.47;1.77;;;29.80;99.90;;;;;;5014792;28;20205;-88
2021/07/18 08:14:48;;;;;;;3.05;1.63;;;29.00;99.90;;;;;;5013740;28;20289;-88
2021/07/18 08:17:14;;;;;;;4.32;1.77;;;29.20;99.90;;;;;;5015141;28;20193;-90
2021/07/18 08:19:41;;;;;;;1.75;1.30;;;29.20;99.90;;;;;;4997792;28;20230;-91
2021/07/18 08:22:08;;;;;;;2.17;1.77;;;28.70;99.90;;;;;;5020457;28;20206;-89
2021/07/18 08:24:34;;;;;;;3.65;1.67;;;27.90;99.90;;;;;;5012117;28;20221;-89
2021/07/18 08:27:00;;;;;;;1.77;1.50;;;27.50;99.90;;;;;;5012336;28;20623;-86
2021/07/18 08:29:26;;;;;;;1.98;1.77;;;27.00;99.90;;;;;;5019170;28;20194;-86
2021/07/18 08:31:57;;;;;;;2.75;1.60;;;27.20;99.90;;;;;;5012361;28;20242;-85
2021/07/18 08:34:23;;;;;;;5.38;2.10;;;27.90;99.90;;;;;;4996980;28;20895;-86
2021/07/18 08:36:49;;;;;;;2.38;1.80;;;27.90;99.90;;;;;;4995381;28;20265;-87
2021/07/18 08:39:16;;;;;;;1.70;1.35;;;28.10;99.90;;;;;;5012500;28;20221;-84
2021/07/18 08:41:44;;;;;;;2.70;1.58;;;28.40;99.90;;;;;;5012112;28;20182;-89
2021/07/18 08:44:14;;;;;;;2.50;1.38;;;28.60;99.90;;;;;;5021176;28;20241;-86
2021/07/18 08:46:41;;;;;;;2.03;1.50;;;28.00;99.90;;;;;;5011799;28;20210;-85
2021/07/18 08:49:09;;;;;;;1.67;1.58;;;27.90;99.90;;;;;;5018890;28;20215;-86
2021/07/18 08:51:35;;;;;;;1.92;1.38;;;27.30;99.90;;;;;;5013031;28;20228;-86
2021/07/18 08:54:03;;;;;;;2.10;1.95;;;27.10;99.90;;;;;;5038361;28;20895;-86
2021/07/18 08:56:32;;;;;;;5.40;1.80;;;27.10;99.90;;;;;;5012706;28;20452;-90
2021/07/18 08:58:59;;;;;;;3.17;1.50;;;26.90;99.90;;;;;;4996350;28;20183;-86
2021/07/18 09:01:25;;;;;;;1.63;1.40;;;26.40;99.90;;;;;;5019953;28;20298;-85
2021/07/18 09:03:51;;;;;;;1.58;1.48;;;26.90;99.90;;;;;;5018186;28;20810;-86
2021/07/18 09:06:17;;;;;;;3.42;1.42;;;27.00;99.90;;;;;;5005115;28;20902;-87
2021/07/18 09:08:45;;;;;;;3.67;1.83;;;26.80;99.90;;;;;;4994701;28;20214;-89
2021/07/18 09:11:22;;;;;;;2.45;1.45;;;27.50;99.90;;;;;;5021852;28;20185;-85
2021/07/18 09:14:05;;;;;;;2.80;1.42;;;27.70;99.90;;;;;;5019537;28;20233;-88
2021/07/18 09:16:34;;;;;;;5.95;1.42;;;27.60;99.90;;;;;;5019180;28;20213;-86
2021/07/18 09:19:23;;;;;;;2.10;1.90;;;27.10;99.90;;;;;;5019716;28;20218;-85
2021/07/18 09:22:10;;;;;;;5.20;1.60;;;27.80;99.90;;;;;;5021817;28;21004;-87
2021/07/18 09:24:48;;;;;;;7.22;1.50;;;27.20;99.90;;;;;;5020014;28;20225;-86
2021/07/18 09:27:21;;;;;;;2.78;1.60;;;27.20;99.90;;;;;;5035487;28;20214;-85
2021/07/18 09:29:49;;;;;;;1.50;1.40;;;27.20;99.90;;;;;;5018152;28;20761;-88
2021/07/18 09:32:25;;;;;;;2.08;1.63;;;26.90;99.90;;;;;;5020024;28;20218;-88
2021/07/18 09:35:03;;;;;;;1.45;1.35;;;27.10;99.90;;;;;;5018490;28;20214;-84
2021/07/18 09:37:32;;;;;;;2.85;1.80;;;27.40;99.90;;;;;;5020598;28;20663;-89
2021/07/18 09:40:06;;;;;;;2.95;1.50;;;27.10;99.90;;;;;;5019766;28;20225;-85
2021/07/18 09:42:34;;;;;;;2.58;1.50;;;26.80;99.90;;;;;;5037688;28;20224;-92
2021/07/18 09:45:05;;;;;;;1.88;1.40;;;27.00;99.90;;;;;;5017735;28;20214;-87
2021/07/18 09:47:30;;;;;;;3.47;1.83;;;26.40;99.90;;;;;;5021314;28;20206;-91
2021/07/18 09:49:56;;;;;;;1.60;1.20;;;26.40;99.90;;;;;;5022625;28;20193;-88
2021/07/18 09:52:27;;;;;;;3.50;1.90;;;26.10;99.90;;;;;;5037904;28;20665;-90
2021/07/18 09:54:55;;;;;;;1.90;1.42;;;26.00;99.90;;;;;;5019719;28;20210;-85
2021/07/18 09:57:33;;;;;;;4.43;1.45;;;26.30;99.90;;;;;;5020838;28;20254;-86
2021/07/18 10:00:00;;;;;;;3.60;1.70;;;26.80;99.90;;;;;;5019733;28;20225;-86
2021/07/18 10:02:29;;;;;;;2.65;1.85;;;26.90;99.90;;;;;;5021339;28;20201;-86
2021/07/18 10:04:56;;;;;;;3.50;1.67;;;26.60;99.90;;;;;;5017480;28;20214;-88
2021/07/18 10:07:28;;;;;;;2.28;2.03;;;27.20;99.90;;;;;;4990888;28;20305;-88
2021/07/18 10:09:54;;;;;;;3.83;1.60;;;26.80;99.90;;;;;;4981732;28;20251;-86
2021/07/18 10:12:20;;;;;;;6.28;2.03;;;26.10;99.90;;;;;;5004618;28;20780;-87
2021/07/18 10:14:46;;;;;;;2.72;1.35;;;26.20;99.90;;;;;;4995018;28;20199;-86
2021/07/18 10:17:12;;;;;;;2.33;1.70;;;26.00;99.90;;;;;;5011611;28;20678;-87
2021/07/18 10:19:38;;;;;;;2.00;1.80;;;25.40;99.90;;;;;;5018152;28;20321;-89
2021/07/18 10:22:07;;;;;;;3.10;1.92;;;24.60;99.90;;;;;;5018472;28;20214;-85
2021/07/18 10:24:33;;;;;;;3.95;1.50;;;25.30;99.90;;;;;;5017544;28;20218;-89
2021/07/18 10:27:04;;;;;;;3.80;1.58;;;25.50;99.90;;;;;;5018358;28;20230;-90
2021/07/18 10:29:32;;;;;;;3.75;1.58;;;24.90;99.90;;;;;;5017857;28;20560;-87
2021/07/18 10:32:04;;;;;;;2.47;1.73;;;25.10;99.90;;;;;;5011436;28;20194;-88
2021/07/18 10:34:34;;;;;;;3.60;2.00;;;24.70;99.90;;;;;;5019298;28;20643;-88
2021/07/18 10:37:02;;;;;;;3.05;1.95;;;24.10;99.90;;;;;;5011444;28;20933;-89
2021/07/18 10:39:35;;;;;;;2.15;1.83;;;24.10;99.90;;;;;;5011147;28;20214;-86
2021/07/18 10:42:05;;;;;;;2.50;1.77;;;24.60;99.90;;;;;;5020668;28;20573;-87
2021/07/18 10:44:40;;;;;;;4.35;1.90;;;24.90;99.90;;;;;;5022009;28;20836;-86
2021/07/18 10:47:06;;;;;;;2.25;1.75;;;24.90;99.90;;;;;;5021077;28;20219;-86
2021/07/18 10:49:54;;;;;;;2.00;1.75;;;24.70;99.90;;;;;;4994771;28;20211;-88
2021/07/18 10:52:23;;;;;;;2.65;1.85;;;24.50;99.90;;;;;;5016107;28;20252;-86
2021/07/18 10:54:49;;;;;;;5.75;2.00;;;24.10;99.90;;;;;;5035345;28;20214;-88
2021/07/18 10:57:24;;;;;;;5.10;1.38;;;24.20;99.90;;;;;;4994220;28;20445;-87
2021/07/18 10:59:50;;;;;;;4.82;2.33;;;24.40;99.90;;;;;;5018036;28;20206;-89
2021/07/18 11:02:42;;;;;;;4.15;2.22;;;24.00;99.90;;;;;;5019252;28;20204;-88
2021/07/18 11:05:16;;;;;;;5.05;1.67;;;24.70;99.90;;;;;;5000421;28;20222;-87
2021/07/18 11:07:53;;;;;;;6.50;2.50;;;24.20;99.90;;;;;;5016643;28;20336;-85
2021/07/18 11:10:20;;;;;;;5.60;1.80;;;24.00;99.90;;;;;;5019192;28;20336;-86
2021/07/18 11:12:48;;;;;;;2.67;1.85;;;24.10;99.90;;;;;;5016974;28;21174;-87
2021/07/18 11:15:35;;;;;;;5.22;1.90;;;24.10;99.90;;;;;;5011002;28;20297;-86
2021/07/18 11:18:25;;;;;;;4.90;2.13;;;24.10;99.90;;;;;;5016620;28;20246;-85
2021/07/18 11:20:54;;;;;;;10.30;2.28;;;24.30;99.90;;;;;;5017865;28;20276;-86
2021/07/18 11:23:30;;;;;;;9.63;2.15;;;24.10;99.90;;;;;;5037956;28;20643;-87
2021/07/18 11:26:08;;;;;;;6.97;2.08;;;24.50;99.90;;;;;;5019848;28;20224;-86
2021/07/18 11:28:38;;;;;;;8.95;2.35;;;24.60;99.90;;;;;;5020908;28;20245;-87
2021/07/18 11:31:10;;;;;;;5.40;1.98;;;24.10;99.90;;;;;;5017343;28;20230;-87
2021/07/18 11:33:36;;;;;;;6.50;2.30;;;23.20;99.90;;;;;;5020040;28;20249;-90
2021/07/18 11:36:02;;;;;;;5.95;2.45;;;23.00;99.90;;;;;;5018069;28;20236;-87
2021/07/18 11:38:31;;;;;;;5.00;2.78;;;23.20;99.90;;;;;;5020442;28;20200;-87
2021/07/18 11:40:57;;;;;;;3.40;1.95;;;23.40;99.90;;;;;;5020639;28;20642;-90
2021/07/18 11:43:24;;;;;;;7.35;2.58;;;22.90;99.90;;;;;;4997127;28;20233;-91
2021/07/18 11:45:55;;;;;;;8.98;2.13;;;22.50;99.90;;;;;;5024260;28;20233;-90
2021/07/18 11:48:24;;;;;;;4.18;2.38;;;22.20;99.90;;;;;;5025741;28;20717;-88
2021/07/18 11:50:50;;;;;;;3.13;2.42;;;22.30;99.90;;;;;;4998025;28;20233;-89
2021/07/18 11:53:17;;;;;;;3.67;2.45;;;22.20;99.90;;;;;;4998237;28;21082;-89
2021/07/18 11:55:43;;;;;;;7.55;2.60;;;22.10;99.90;;;;;;5015593;28;20233;-89
2021/07/18 11:58:09;;;;;;;2.08;1.88;;;22.30;99.90;;;;;;5013763;28;20214;-88
2021/07/18 12:00:37;;;;;;;4.07;1.98;;;22.30;99.90;;;;;;4997907;28;20233;-87
2021/07/18 12:03:04;;;;;;;7.60;2.73;;;22.40;99.90;;;;;;5014655;28;20213;-88
2021/07/18 12:05:30;;;;;;;6.35;3.47;;;22.30;99.90;;;;;;4999116;28;20178;-89
2021/07/18 12:08:05;;;;;;;9.95;2.55;;;22.10;99.90;;;;;;5007133;28;20206;-89
2021/07/18 12:10:31;;;;;;;3.28;2.33;;;22.20;99.90;;;;;;5005632;28;20205;-88
2021/07/18 12:12:57;;;;;;;8.83;3.00;;;22.10;99.90;;;;;;5013818;28;20210;-89
2021/07/18 12:15:23;;;;;;;3.33;2.10;;;22.60;99.90;;;;;;4997922;28;20217;-89
2021/07/18 12:18:03;;;;;;;5.72;2.50;;;22.90;99.90;;;;;;5014029;28;20214;-89
2021/07/18 12:20:29;;;;;;;2.13;1.85;;;22.60;99.90;;;;;;5014613;28;20209;-90
2021/07/18 12:23:09;;;;;;;2.08;1.90;;;22.50;99.90;;;;;;4997905;28;20646;-89
2021/07/18 12:25:35;;;;;;;2.15;1.58;;;23.00;99.90;;;;;;5023317;28;20227;-88
2021/07/18 12:28:01;;;;;;;2.33;2.13;;;22.90;99.90;;;;;;4998236;28;20241;-89
2021/07/18 12:30:26;;;;;;;3.88;2.30;;;22.80;99.90;;;;;;4997747;28;20682;-88
2021/07/18 12:32:52;;;;;;;3.30;2.13;;;22.70;99.90;;;;;;4998537;28;20274;-89
2021/07/18 12:35:18;;;;;;;2.10;1.20;;;22.60;99.90;;;;;;5014905;28;20223;-87
2021/07/18 12:37:46;;;;;;;3.65;2.50;;;23.00;99.90;;;;;;5013443;28;20245;-89
2021/07/18 12:40:12;;;;;;;4.72;2.55;;;23.00;99.90;;;;;;4996994;28;20222;-89
2021/07/18 12:42:45;;;;;;;3.78;2.03;;;22.80;99.90;;;;;;5012625;28;20206;-89
2021/07/18 12:45:20;;;;;;;3.10;2.40;;;22.60;99.90;;;;;;5039718;28;20206;-89
2021/07/18 12:47:58;;;;;;;3.80;2.17;;;22.50;99.90;;;;;;5014600;28;20285;-87